Time;durP1;ratioP1;P1;durP2;ratioP2;P2;SDS_P1;SDS_P2;PMS_P1;PMS_P2;Temp;Humidity;BMP_temperature;BMP_pressure;BME280_temperature;BME280_humidity;BME280_pressure;Samples;Min_cycle;Max_cycle;Signal;HPM_P1;HPM_P2
2020/12/12 00:03:18;;;;;;;34.90;13.97;;;;;;;4.31;84.73;98291.53;8696532;33;20915;-71
2020/12/12 00:08:21;;;;;;;33.70;14.43;;;;;;;4.30;84.42;98282.72;8697388;33;20992;-74
2020/12/12 00:13:24;;;;;;;37.23;15.13;;;;;;;4.32;85.20;98293.22;8696820;33;20220;-72
2020/12/12 00:18:27;;;;;;;38.63;15.93;;;;;;;4.32;84.97;98285.28;8697232;33;20520;-72
2020/12/12 00:23:29;;;;;;;35.83;14.80;;;;;;;4.41;85.15;98300.44;8696681;33;20215;-71
2020/12/12 00:28:34;;;;;;;34.43;15.63;;;;;;;4.40;85.02;98296.13;8696565;33;20160;-72
2020/12/12 00:33:36;;;;;;;34.43;15.87;;;;;;;4.37;85.09;98286.63;8695862;33;20251;-73
2020/12/12 00:38:38;;;;;;;33.37;13.63;;;;;;;4.44;85.02;98295.78;8695917;33;20303;-73
2020/12/12 00:43:41;;;;;;;30.77;13.63;;;;;;;4.48;84.75;98285.81;8696419;33;20153;-73
2020/12/12 00:48:44;;;;;;;33.20;14.67;;;;;;;4.42;84.51;98295.06;8696343;33;20463;-72
2020/12/12 00:53:46;;;;;;;33.30;14.97;;;;;;;4.54;84.43;98289.78;8695759;33;20644;-74
2020/12/12 00:58:50;;;;;;;34.50;14.43;;;;;;;4.50;84.45;98294.50;8718489;33;20156;-73
2020/12/12 01:03:53;;;;;;;30.37;14.10;;;;;;;4.58;84.73;98288.59;8705588;28;20125;-74
2020/12/12 01:08:55;;;;;;;34.90;14.30;;;;;;;4.57;84.79;98289.56;8718424;33;20155;-74
2020/12/12 01:13:58;;;;;;;29.70;13.80;;;;;;;4.57;84.85;98292.22;8754113;33;20175;-76
2020/12/12 01:19:01;;;;;;;32.77;13.97;;;;;;;4.51;84.72;98293.50;8753730;33;20564;-76
2020/12/12 01:24:04;;;;;;;34.53;13.20;;;;;;;4.45;85.20;98300.09;8754142;33;20290;-74
2020/12/12 01:29:07;;;;;;;37.00;13.67;;;;;;;4.42;85.39;98296.84;8753510;33;20415;-76
2020/12/12 01:34:10;;;;;;;35.23;14.13;;;;;;;4.40;85.26;98298.78;8753733;33;20444;-76
2020/12/12 01:39:12;;;;;;;34.67;13.03;;;;;;;4.43;85.87;98295.88;8753456;33;20177;-76
2020/12/12 01:44:17;;;;;;;33.37;14.80;;;;;;;4.46;85.72;98293.84;8753521;33;20152;-76
2020/12/12 01:49:19;;;;;;;33.50;14.83;;;;;;;4.48;85.71;98291.09;8753432;33;20148;-77
2020/12/12 01:54:22;;;;;;;35.47;14.97;;;;;;;4.46;85.81;98299.13;8728444;33;20658;-76
2020/12/12 01:59:25;;;;;;;40.40;16.77;;;;;;;4.51;86.10;98297.97;8752271;33;20305;-77
2020/12/12 02:04:28;;;;;;;37.43;15.30;;;;;;;4.50;85.93;98299.78;8752258;33;20156;-76
2020/12/12 02:09:30;;;;;;;37.13;16.07;;;;;;;4.48;86.05;98295.56;8752175;33;20707;-77
2020/12/12 02:14:37;;;;;;;38.63;14.77;;;;;;;4.56;86.38;98296.66;8727749;33;20197;-77
2020/12/12 02:19:58;;;;;;;41.20;15.70;;;;;;;4.61;86.17;98296.31;8730794;33;20726;-76
2020/12/12 02:25:01;;;;;;;38.83;15.13;;;;;;;4.61;86.09;98286.59;8751836;33;20151;-76
2020/12/12 02:30:04;;;;;;;37.73;15.33;;;;;;;4.67;86.05;98295.84;8754291;33;20561;-76
2020/12/12 02:35:25;;;;;;;38.07;15.07;;;;;;;4.70;86.32;98295.63;8730708;33;20161;-75
2020/12/12 02:40:32;;;;;;;40.00;17.87;;;;;;;4.69;86.09;98293.94;8726522;33;20236;-76
2020/12/12 02:45:35;;;;;;;39.30;14.10;;;;;;;4.77;86.40;98293.34;8751462;33;20198;-76
2020/12/12 02:50:37;;;;;;;37.80;14.63;;;;;;;4.80;86.36;98295.75;8751161;33;20246;-76
2020/12/12 02:55:40;;;;;;;35.17;13.77;;;;;;;4.79;86.23;98296.72;8750521;33;20156;-75
2020/12/12 03:00:43;;;;;;;36.30;15.37;;;;;;;4.71;86.25;98297.28;8750691;33;20365;-74
2020/12/12 03:05:45;;;;;;;37.57;15.23;;;;;;;4.72;86.46;98296.34;8750919;33;20514;-74
2020/12/12 03:10:49;;;;;;;37.73;16.97;;;;;;;4.65;86.32;98300.41;8750977;33;20221;-76
2020/12/12 03:15:51;;;;;;;38.87;15.47;;;;;;;4.76;86.26;98304.88;8726164;33;20148;-76
2020/12/12 03:20:53;;;;;;;41.07;16.53;;;;;;;4.78;86.28;98306.47;8750476;33;20152;-76
2020/12/12 03:25:57;;;;;;;36.77;15.30;;;;;;;4.87;86.20;98311.03;8750654;33;20258;-76
2020/12/12 03:30:59;;;;;;;37.63;14.87;;;;;;;4.93;86.14;98316.81;8750218;33;20712;-76
2020/12/12 03:36:03;;;;;;;38.27;15.80;;;;;;;4.92;86.20;98320.44;8750516;33;20159;-76
2020/12/12 03:41:06;;;;;;;37.63;15.40;;;;;;;4.94;86.03;98326.44;8750230;33;20303;-76
2020/12/12 03:46:08;;;;;;;37.13;13.67;;;;;;;4.95;85.90;98336.06;8750262;33;20182;-76
2020/12/12 03:51:11;;;;;;;34.50;14.87;;;;;;;5.00;85.88;98337.41;8750058;33;20523;-76
2020/12/12 03:56:15;;;;;;;41.07;15.80;;;;;;;4.99;85.57;98326.94;8750131;33;20148;-74
2020/12/12 04:01:17;;;;;;;31.08;13.98;;;;;;;5.06;85.75;98330.81;8749784;33;20291;-76
2020/12/12 04:06:21;;;;;;;37.47;15.27;;;;;;;5.08;85.43;98335.03;8752658;33;21026;-77
2020/12/12 04:11:24;;;;;;;42.67;15.67;;;;;;;5.10;85.47;98332.22;8730565;33;20201;-76
2020/12/12 04:16:27;;;;;;;37.73;14.77;;;;;;;5.16;85.54;98338.88;8707493;33;20448;-77
2020/12/12 04:21:29;;;;;;;44.93;15.97;;;;;;;5.18;85.52;98337.78;8754520;33;20155;-76
2020/12/12 04:26:33;;;;;;;29.80;14.00;;;;;;;5.20;85.23;98341.16;8754935;33;20636;-76
2020/12/12 04:31:35;;;;;;;33.13;14.27;;;;;;;5.23;85.14;98346.22;8754337;33;20153;-74
2020/12/12 04:36:40;;;;;;;35.20;14.67;;;;;;;5.25;85.15;98339.00;8730078;33;20179;-76
2020/12/12 04:41:44;;;;;;;30.23;13.60;;;;;;;5.30;85.08;98347.44;8729798;33;20644;-74
2020/12/12 04:46:47;;;;;;;35.23;15.37;;;;;;;5.31;85.12;98342.97;8754398;33;20156;-77
2020/12/12 04:51:52;;;;;;;34.83;15.23;;;;;;;5.35;85.09;98339.16;8753640;33;20489;-75
2020/12/12 04:57:02;;;;;;;33.60;13.00;;;;;;;5.35;85.15;98342.63;8743010;33;20243;-75
2020/12/12 05:02:05;;;;;;;34.17;13.93;;;;;;;5.33;85.06;98349.84;8753632;33;20302;-76
2020/12/12 05:07:08;;;;;;;33.42;14.35;;;;;;;5.40;85.16;98357.31;8753491;33;20718;-75
2020/12/12 05:12:13;;;;;;;33.23;15.23;;;;;;;5.38;85.11;98352.16;8753162;33;20172;-76
2020/12/12 05:17:16;;;;;;;36.53;15.57;;;;;;;5.37;84.90;98350.44;8753324;33;21064;-75
2020/12/12 05:22:18;;;;;;;39.87;16.07;;;;;;;5.37;84.78;98350.44;8752962;33;20152;-75
2020/12/12 05:27:22;;;;;;;35.80;14.80;;;;;;;5.42;84.87;98353.56;8753387;33;20444;-74
2020/12/12 05:32:24;;;;;;;32.47;14.40;;;;;;;5.44;84.87;98356.13;8752793;33;20243;-75
2020/12/12 05:37:27;;;;;;;40.77;15.77;;;;;;;5.49;84.71;98367.19;8752863;33;20182;-75
2020/12/12 05:42:30;;;;;;;35.80;13.77;;;;;;;5.52;84.82;98362.50;8752827;33;20156;-76
2020/12/12 05:47:33;;;;;;;33.45;14.30;;;;;;;5.57;85.10;98365.63;8752706;33;20541;-75
2020/12/12 05:52:36;;;;;;;34.65;14.27;;;;;;;5.50;85.04;98353.81;8751523;33;20563;-76
2020/12/12 05:57:41;;;;;;;32.87;14.47;;;;;;;5.45;84.70;98355.97;8727517;33;20658;-75
2020/12/12 06:02:52;;;;;;;37.55;15.05;;;;;;;5.46;84.72;98362.16;8751761;33;20237;-75
2020/12/12 06:07:57;;;;;;;34.53;14.43;;;;;;;5.46;85.02;98367.44;8753268;33;20170;-75
2020/12/12 06:13:03;;;;;;;36.00;15.37;;;;;;;5.51;85.22;98375.84;8752185;33;20144;-76
2020/12/12 06:18:36;;;;;;;35.53;13.60;;;;;;;5.55;85.31;98387.91;8732725;33;20152;-75
2020/12/12 06:23:41;;;;;;;35.67;15.03;;;;;;;5.56;85.19;98395.72;8751166;33;20286;-75
2020/12/12 06:28:44;;;;;;;38.53;16.33;;;;;;;5.56;85.09;98394.88;8751179;33;20627;-75
2020/12/12 06:33:51;;;;;;;35.38;15.05;;;;;;;5.58;85.12;98407.03;8726830;33;20439;-76
2020/12/12 06:39:30;;;;;;;36.25;14.85;;;;;;;5.57;84.96;98404.53;8751618;33;20325;-76
2020/12/12 06:44:36;;;;;;;32.53;14.30;;;;;;;5.53;84.79;98403.91;8751512;33;20158;-75
2020/12/12 06:49:41;;;;;;;32.08;14.77;;;;;;;5.51;85.17;98411.16;8751279;33;20298;-75
2020/12/12 06:55:07;;;;;;;31.88;13.95;;;;;;;5.40;84.96;98416.41;8750837;33;20152;-74
2020/12/12 07:00:19;;;;;;;30.23;13.05;;;;;;;5.34;84.92;98422.16;8726579;33;20656;-75
2020/12/12 07:05:24;;;;;;;30.88;14.50;;;;;;;5.30;85.05;98426.03;8752376;27;20390;-74
2020/12/12 07:10:26;;;;;;;34.35;13.25;;;;;;;5.25;85.10;98444.06;8749368;33;20152;-73
2020/12/12 07:15:30;;;;;;;30.13;13.18;;;;;;;5.26;85.14;98440.44;8751972;33;20598;-74
2020/12/12 07:20:35;;;;;;;40.47;14.33;;;;;;;5.27;85.24;98447.44;8751711;33;20672;-74
2020/12/12 07:25:38;;;;;;;36.60;15.15;;;;;;;5.25;85.28;98447.56;8751698;33;20148;-72
2020/12/12 07:30:42;;;;;;;29.45;12.93;;;;;;;5.25;85.51;98457.31;8751427;33;20171;-72
2020/12/12 07:35:45;;;;;;;32.03;12.10;;;;;;;5.26;85.41;98462.47;8751833;33;20152;-73
2020/12/12 07:40:47;;;;;;;35.60;14.55;;;;;;;5.24;85.50;98475.00;8754210;33;20193;-73
2020/12/12 07:46:02;;;;;;;31.30;13.45;;;;;;;5.26;85.60;98472.22;8752003;33;20557;-73
2020/12/12 07:51:13;;;;;;;32.50;14.43;;;;;;;5.33;85.66;98489.34;8753893;33;20160;-73
2020/12/12 07:56:18;;;;;;;33.30;13.63;;;;;;;5.41;85.38;98486.94;8756188;33;20233;-72
2020/12/12 08:01:24;;;;;;;38.65;14.82;;;;;;;5.55;85.75;98494.69;8755991;33;20164;-72
2020/12/12 08:06:28;;;;;;;34.50;15.35;;;;;;;5.66;85.19;98501.81;8754904;33;20444;-72
2020/12/12 08:11:31;;;;;;;32.83;14.57;;;;;;;5.77;84.82;98511.59;8755672;33;20147;-73
2020/12/12 08:16:40;;;;;;;31.67;13.70;;;;;;;5.87;84.82;98530.25;8755308;33;20714;-73
2020/12/12 08:21:44;;;;;;;29.95;13.65;;;;;;;6.05;85.15;98538.66;8754898;33;20155;-73
2020/12/12 08:26:46;;;;;;;29.52;13.90;;;;;;;6.17;85.10;98537.69;8755150;33;20628;-72
2020/12/12 08:31:49;;;;;;;35.42;14.23;;;;;;;6.29;84.99;98552.66;8754527;33;20156;-72
2020/12/12 08:36:52;;;;;;;35.40;15.13;;;;;;;6.37;84.76;98560.84;8754682;33;20464;-73
2020/12/12 08:41:54;;;;;;;32.40;14.25;;;;;;;6.32;83.99;98549.75;8754030;33;20278;-72
2020/12/12 08:46:57;;;;;;;37.95;14.68;;;;;;;6.40;84.12;98563.25;8750997;33;20155;-72
2020/12/12 08:52:01;;;;;;;35.00;14.88;;;;;;;6.48;84.21;98567.13;8751921;33;20155;-72
2020/12/12 08:57:09;;;;;;;12.10;5.50;;;;;;;6.55;83.90;98566.50;8753580;33;20644;-72
2020/12/12 09:02:17;;;;;;;26.75;11.38;;;;;;;6.73;83.38;98579.28;8753204;33;20246;-72
2020/12/12 09:07:23;;;;;;;35.25;15.48;;;;;;;7.04;83.70;98577.66;8753442;33;20231;-72
2020/12/12 09:12:25;;;;;;;37.47;15.15;;;;;;;7.22;82.81;98583.28;8752902;33;20155;-72
2020/12/12 09:17:28;;;;;;;26.90;12.77;;;;;;;7.33;82.92;98581.44;8751518;33;20285;-72
2020/12/12 09:22:31;;;;;;;26.45;12.55;;;;;;;7.39;82.32;98589.88;8751586;33;20251;-72
2020/12/12 09:27:33;;;;;;;33.53;13.88;;;;;;;7.45;82.31;98600.00;8751361;33;20198;-72
2020/12/12 09:32:36;;;;;;;28.48;13.50;;;;;;;7.47;80.94;98608.69;8752084;33;20651;-72
2020/12/12 09:37:39;;;;;;;26.38;12.38;;;;;;;7.31;81.19;98606.44;8752571;33;20196;-72
2020/12/12 09:42:41;;;;;;;25.23;11.45;;;;;;;7.19;81.61;98618.06;8751011;33;20305;-72
2020/12/12 09:47:44;;;;;;;28.15;12.57;;;;;;;7.20;81.92;98622.41;8752074;33;20200;-71
2020/12/12 09:52:46;;;;;;;26.15;12.00;;;;;;;7.20;82.43;98623.25;8751836;33;20297;-72
2020/12/12 09:57:49;;;;;;;25.90;11.63;;;;;;;7.26;82.34;98632.53;8751629;33;20168;-74
2020/12/12 10:02:52;;;;;;;26.40;12.30;;;;;;;7.33;82.12;98637.22;8714815;33;20644;-73
2020/12/12 10:07:56;;;;;;;24.10;12.27;;;;;;;7.33;81.63;98637.22;8751833;33;20448;-72
2020/12/12 10:12:59;;;;;;;25.45;12.30;;;;;;;7.28;80.82;98652.69;8751278;33;20204;-73
2020/12/12 10:18:02;;;;;;;28.25;12.82;;;;;;;7.36;81.63;98646.75;8740608;33;20148;-71
2020/12/12 10:23:05;;;;;;;27.30;13.80;;;;;;;7.30;81.11;98655.22;8750679;33;20159;-71
2020/12/12 10:28:08;;;;;;;28.63;13.45;;;;;;;7.25;80.73;98663.56;8751084;33;20148;-72
2020/12/12 10:33:11;;;;;;;33.85;15.40;;;;;;;7.37;81.59;98664.38;8750551;33;20774;-72
2020/12/12 10:38:14;;;;;;;32.22;14.57;;;;;;;7.42;81.00;98664.00;8751571;33;20147;-72
2020/12/12 10:43:16;;;;;;;28.10;13.23;;;;;;;7.52;81.27;98668.44;8750437;33;20200;-71
2020/12/12 10:48:19;;;;;;;27.63;13.02;;;;;;;7.65;82.04;98664.78;8750658;33;20666;-72
2020/12/12 10:53:22;;;;;;;27.13;12.48;;;;;;;7.68;80.78;98669.84;8747432;33;20455;-71
2020/12/12 10:58:24;;;;;;;27.08;12.63;;;;;;;7.78;81.40;98665.47;8748059;33;20159;-72
2020/12/12 11:03:28;;;;;;;26.88;12.70;;;;;;;7.86;81.02;98667.47;8748169;33;20156;-73
2020/12/12 11:08:30;;;;;;;32.47;13.48;;;;;;;7.84;80.36;98669.41;8748280;33;20159;-71
2020/12/12 11:13:33;;;;;;;24.95;12.50;;;;;;;7.89;80.27;98676.03;8750225;33;20630;-72
2020/12/12 11:18:50;;;;;;;25.25;11.95;;;;;;;7.84;79.23;98680.91;8756175;33;20550;-73
2020/12/12 11:24:01;;;;;;;23.42;11.35;;;;;;;7.87;79.35;98691.31;8756139;33;20156;-71
2020/12/12 11:29:04;;;;;;;24.15;11.95;;;;;;;7.95;79.46;98686.19;8755369;33;20132;-71
2020/12/12 11:34:12;;;;;;;22.08;10.68;;;;;;;8.13;80.39;98696.25;8755205;33;20742;-73
2020/12/12 11:39:17;;;;;;;23.67;10.55;;;;;;;8.09;79.50;98690.38;8754844;33;20144;-73
2020/12/12 11:44:50;;;;;;;24.20;11.90;;;;;;;8.23;80.41;98690.03;8755783;33;20144;-72
2020/12/12 11:49:54;;;;;;;26.35;12.55;;;;;;;8.26;79.58;98694.25;8754593;33;20234;-71
2020/12/12 11:54:56;;;;;;;27.00;12.20;;;;;;;8.23;79.54;98695.38;8738931;33;20160;-72
2020/12/12 12:00:03;;;;;;;23.20;11.70;;;;;;;8.26;79.68;98702.25;8751311;33;20156;-71
2020/12/12 12:05:08;;;;;;;21.55;10.25;;;;;;;8.36;80.46;98705.78;8754031;33;20128;-70
2020/12/12 12:10:15;;;;;;;24.42;11.45;;;;;;;8.41;79.05;98708.09;8751742;33;20329;-72
2020/12/12 12:15:17;;;;;;;22.85;11.23;;;;;;;8.36;79.56;98719.09;8752623;33;20238;-71
2020/12/12 12:20:24;;;;;;;23.77;11.52;;;;;;;8.41;79.31;98713.44;8754465;33;20294;-70
2020/12/12 12:25:26;;;;;;;23.52;11.48;;;;;;;8.40;79.25;98720.56;8765893;33;20152;-73
2020/12/12 12:30:29;;;;;;;21.77;10.85;;;;;;;8.44;79.59;98731.78;8753746;33;20496;-70
2020/12/12 12:35:32;;;;;;;21.75;10.65;;;;;;;8.37;79.46;98730.63;8753403;33;20152;-73
2020/12/12 12:40:34;;;;;;;21.20;10.23;;;;;;;8.40;79.68;98741.03;8753480;33;20246;-70
2020/12/12 12:45:37;;;;;;;22.25;11.23;;;;;;;8.44;79.29;98742.44;8753972;33;21080;-73
2020/12/12 12:50:42;;;;;;;21.38;11.15;;;;;;;8.45;79.35;98746.81;8753622;33;20152;-70
2020/12/12 12:55:44;;;;;;;23.40;11.23;;;;;;;8.37;79.31;98751.91;8728808;33;20162;-73
2020/12/12 13:00:46;;;;;;;26.67;12.57;;;;;;;8.42;80.07;98753.22;8752698;33;20151;-72
2020/12/12 13:05:50;;;;;;;18.73;10.93;;;;;;;8.38;78.74;98750.91;8753222;33;20445;-70
2020/12/12 13:10:52;;;;;;;22.95;10.63;;;;;;;8.37;79.67;98750.06;8738001;33;20637;-71
2020/12/12 13:15:54;;;;;;;23.88;11.30;;;;;;;8.36;78.84;98744.88;8787830;33;20148;-72
2020/12/12 13:21:02;;;;;;;25.17;10.60;;;;;;;8.32;78.66;98746.94;8752076;33;20625;-71
2020/12/12 13:26:04;;;;;;;28.42;13.05;;;;;;;8.36;79.16;98759.00;8751875;33;20144;-73
2020/12/12 13:31:07;;;;;;;23.58;11.68;;;;;;;8.44;79.47;98767.22;8751775;33;20524;-71
2020/12/12 13:36:18;;;;;;;23.50;12.35;;;;;;;8.44;79.47;98769.91;8751729;33;20298;-71
2020/12/12 13:41:21;;;;;;;22.08;11.20;;;;;;;8.45;79.12;98776.94;8751695;33;20152;-73
2020/12/12 13:46:24;;;;;;;23.00;10.70;;;;;;;8.46;78.35;98785.75;8751569;33;20641;-71
2020/12/12 13:51:27;;;;;;;20.15;11.05;;;;;;;8.42;78.33;98802.97;8743962;33;20241;-72
2020/12/12 13:56:29;;;;;;;20.23;10.77;;;;;;;8.36;77.61;98796.28;8748984;33;20250;-73
2020/12/12 14:01:32;;;;;;;20.25;10.63;;;;;;;8.35;77.55;98801.72;8748454;33;20136;-72
2020/12/12 14:06:35;;;;;;;24.38;11.48;;;;;;;8.36;77.41;98809.56;8748715;33;20155;-72
2020/12/12 14:32:54;;;;;;;22.45;11.57;;;;;;;8.28;77.52;98841.28;8748261;33;20654;-72
2020/12/12 14:37:58;;;;;;;25.40;12.27;;;;;;;8.24;77.86;98847.84;8744180;33;20826;-71
2020/12/12 14:43:01;;;;;;;21.92;9.65;;;;;;;8.24;77.60;98853.16;8747418;33;20266;-72
2020/12/12 14:48:06;;;;;;;23.27;11.65;;;;;;;8.21;77.81;98862.25;8747110;33;20242;-72
2020/12/12 14:53:10;;;;;;;22.17;11.63;;;;;;;8.18;77.83;98862.50;8746929;33;20171;-72
2020/12/12 14:58:12;;;;;;;23.55;11.88;;;;;;;8.18;77.92;98882.94;8748564;33;20741;-70
2020/12/12 15:03:14;;;;;;;21.42;11.52;;;;;;;8.20;77.93;98886.28;8750376;33;20140;-70
2020/12/12 15:08:19;;;;;;;21.83;11.13;;;;;;;8.18;78.07;98890.91;8750210;33;20626;-70
2020/12/12 15:13:21;;;;;;;21.20;11.45;;;;;;;8.16;77.83;98908.81;8750862;33;20198;-71
2020/12/12 15:18:23;;;;;;;23.30;11.88;;;;;;;8.12;77.87;98908.22;8748441;33;20305;-73
2020/12/12 15:23:27;;;;;;;21.65;11.13;;;;;;;8.11;77.82;98919.81;8750901;33;20148;-72
2020/12/12 15:28:30;;;;;;;23.38;12.27;;;;;;;8.12;78.01;98923.34;8751179;33;20148;-72
2020/12/12 15:33:40;;;;;;;24.25;11.70;;;;;;;8.01;78.46;98933.00;8749867;33;20148;-71
2020/12/12 15:38:43;;;;;;;23.50;11.52;;;;;;;7.99;79.06;98934.09;8749651;33;20586;-71
2020/12/12 15:43:46;;;;;;;24.25;12.52;;;;;;;7.92;79.68;98936.38;8749980;33;20217;-74
2020/12/12 15:48:48;;;;;;;68.93;31.35;;;;;;;7.90;80.05;98950.75;8749292;33;20663;-74
2020/12/12 15:53:52;;;;;;;50.22;23.50;;;;;;;7.89;80.21;98957.06;8748736;33;21128;-74
2020/12/12 15:58:54;;;;;;;45.30;21.23;;;;;;;7.89;80.35;98957.06;8748806;33;20245;-74
2020/12/12 16:03:57;;;;;;;33.80;17.38;;;;;;;7.88;80.73;98968.66;8742309;33;20608;-74
2020/12/12 16:09:03;;;;;;;35.45;18.40;;;;;;;7.82;80.66;98972.66;8753640;33;20160;-72
2020/12/12 16:14:05;;;;;;;31.83;14.93;;;;;;;7.76;81.23;98983.75;8754424;33;20164;-74
2020/12/12 16:19:07;;;;;;;30.20;13.95;;;;;;;7.70;81.79;98984.22;8753336;33;20237;-74
2020/12/12 16:24:11;;;;;;;28.40;12.40;;;;;;;7.64;82.41;98995.34;8754027;33;20628;-74
2020/12/12 16:29:13;;;;;;;25.83;12.20;;;;;;;7.57;82.90;98998.47;8752584;33;20227;-74
2020/12/12 16:34:15;;;;;;;22.67;12.43;;;;;;;7.52;83.33;99008.59;8752867;33;20155;-73
2020/12/12 16:39:24;;;;;;;23.65;12.35;;;;;;;7.52;83.66;99011.25;8753132;33;20522;-74
2020/12/12 16:44:26;;;;;;;27.05;14.27;;;;;;;7.51;83.92;99009.56;8754361;33;20282;-74
2020/12/12 16:49:28;;;;;;;29.15;13.70;;;;;;;7.50;84.27;99012.34;8754158;33;20140;-73
2020/12/12 16:54:32;;;;;;;28.33;13.88;;;;;;;7.48;84.29;99017.75;8753531;33;20605;-73
2020/12/12 16:59:35;;;;;;;29.92;13.80;;;;;;;7.49;84.42;99014.16;8753454;33;20201;-73
2020/12/12 17:04:37;;;;;;;27.85;15.00;;;;;;;7.49;84.47;99022.13;8757248;33;20632;-71
2020/12/12 17:09:41;;;;;;;29.38;14.48;;;;;;;7.45;84.49;99025.97;8752867;33;20474;-72
2020/12/12 17:14:43;;;;;;;59.17;28.30;;;;;;;7.48;84.59;99035.50;8754721;33;20156;-74
2020/12/12 17:19:46;;;;;;;34.10;17.58;;;;;;;7.51;84.53;99035.28;8755081;33;20246;-73
2020/12/12 17:24:49;;;;;;;36.35;18.70;;;;;;;7.54;84.50;99037.69;8754868;33;20181;-71
2020/12/12 17:29:51;;;;;;;36.80;17.73;;;;;;;7.56;84.32;99046.41;8755146;33;20665;-73
2020/12/12 17:34:53;;;;;;;36.83;17.05;;;;;;;7.56;84.17;99049.06;8755478;33;20156;-72
2020/12/12 17:39:56;;;;;;;39.88;19.70;;;;;;;7.59;83.86;99048.84;8754873;33;20953;-72
2020/12/12 17:44:59;;;;;;;32.60;17.17;;;;;;;7.62;83.73;99053.91;8755150;33;21059;-73
2020/12/12 17:50:01;;;;;;;29.75;15.98;;;;;;;7.63;83.60;99054.78;8754265;33;20210;-73
2020/12/12 17:55:04;;;;;;;35.90;17.75;;;;;;;7.63;83.28;99065.41;8751710;33;20347;-72
2020/12/12 18:00:10;;;;;;;36.28;18.35;;;;;;;7.63;83.13;99071.56;8753769;33;20426;-73
2020/12/12 18:05:13;;;;;;;34.60;18.17;;;;;;;7.65;82.92;99074.09;8746744;33;20147;-73
2020/12/12 18:10:16;;;;;;;34.25;16.88;;;;;;;7.68;82.70;99079.19;8755626;33;20708;-71
2020/12/12 18:15:19;;;;;;;31.65;16.50;;;;;;;7.65;82.38;99079.41;8754780;33;20976;-73
2020/12/12 18:20:21;;;;;;;40.50;20.17;;;;;;;7.67;82.35;99090.78;8754312;33;20151;-72
2020/12/12 18:25:25;;;;;;;31.77;15.93;;;;;;;7.66;82.32;99097.09;8752791;33;20592;-70
2020/12/12 18:30:27;;;;;;;25.67;13.75;;;;;;;7.67;82.41;99101.41;8753194;33;20188;-73
2020/12/12 18:35:31;;;;;;;25.35;13.82;;;;;;;7.68;82.35;99105.75;8724389;33;20156;-73
2020/12/12 18:40:34;;;;;;;29.23;14.70;;;;;;;7.69;82.23;99107.47;8752509;33;20301;-72
2020/12/12 18:45:37;;;;;;;36.08;18.10;;;;;;;7.67;82.15;99106.75;8752933;33;20230;-73
2020/12/12 18:50:41;;;;;;;32.75;15.43;;;;;;;7.67;82.12;99117.38;8752848;33;20144;-73
2020/12/12 18:55:44;;;;;;;32.22;16.88;;;;;;;7.69;82.30;99124.28;8752676;33;20663;-73
2020/12/12 19:00:46;;;;;;;39.65;19.33;;;;;;;7.69;82.39;99131.41;8749832;33;20152;-73
2020/12/12 19:06:00;;;;;;;33.72;17.85;;;;;;;7.70;82.37;99127.78;8752944;33;20147;-72
2020/12/12 19:11:03;;;;;;;28.48;15.85;;;;;;;7.71;82.57;99137.47;8677942;33;20667;-73
2020/12/12 19:16:05;;;;;;;28.23;13.25;;;;;;;7.70;82.55;99133.94;8693223;33;20161;-71
2020/12/12 19:21:08;;;;;;;35.53;17.08;;;;;;;7.71;82.63;99140.97;8690261;33;20153;-72
2020/12/12 19:26:12;;;;;;;154.98;53.78;;;;;;;7.74;82.67;99153.19;8692996;33;20148;-73
2020/12/12 19:31:15;;;;;;;58.15;24.90;;;;;;;7.75;82.64;99150.38;8693422;33;20534;-73
2020/12/12 19:36:21;;;;;;;91.28;28.23;;;;;;;7.75;82.82;99149.53;8694779;33;20161;-73
2020/12/12 19:41:25;;;;;;;55.92;25.17;;;;;;;7.74;82.76;99155.84;8698722;33;20335;-73
2020/12/12 19:46:28;;;;;;;34.83;16.95;;;;;;;7.70;82.75;99167.66;8698906;33;20219;-73
2020/12/12 19:51:31;;;;;;;33.97;15.75;;;;;;;7.67;82.92;99167.88;8698676;33;20445;-73
2020/12/12 19:56:35;;;;;;;30.08;15.45;;;;;;;7.70;82.80;99181.78;8698681;33;20141;-73
2020/12/12 20:01:37;;;;;;;30.52;15.10;;;;;;;7.72;82.68;99177.22;8721119;33;20283;-73
2020/12/12 20:06:40;;;;;;;26.77;14.32;;;;;;;7.75;82.74;99181.44;8706698;33;20398;-73
2020/12/12 20:11:43;;;;;;;29.35;15.45;;;;;;;7.77;82.71;99192.81;8757711;33;20152;-73
2020/12/12 20:16:45;;;;;;;26.10;13.98;;;;;;;7.70;82.80;99191.56;8757037;33;20400;-73
2020/12/12 20:21:48;;;;;;;29.45;14.75;;;;;;;7.70;83.14;99191.56;8756853;33;20275;-73
2020/12/12 20:26:53;;;;;;;27.48;15.45;;;;;;;7.71;83.30;99195.94;8755980;33;20302;-73
2020/12/12 20:31:57;;;;;;;28.52;14.82;;;;;;;7.74;83.25;99209.00;8756471;33;20245;-71
2020/12/12 20:37:01;;;;;;;29.67;15.30;;;;;;;7.76;83.31;99210.59;8754157;33;20454;-72
2020/12/12 20:42:04;;;;;;;27.55;15.13;;;;;;;7.74;83.42;99209.84;8756137;33;20159;-73
2020/12/12 20:47:07;;;;;;;29.73;14.23;;;;;;;7.74;83.33;99215.16;8755604;33;20387;-72
2020/12/12 20:52:10;;;;;;;26.85;14.63;;;;;;;7.75;83.47;99219.50;8755096;33;20147;-72
2020/12/12 20:57:13;;;;;;;33.25;15.07;;;;;;;7.72;83.40;99229.53;8754552;33;20324;-73
2020/12/12 21:02:16;;;;;;;32.03;16.42;;;;;;;7.76;83.37;99241.63;8730195;33;20433;-72
2020/12/12 21:07:18;;;;;;;26.02;14.50;;;;;;;7.78;83.50;99242.38;8754916;33;20163;-73
2020/12/12 21:12:21;;;;;;;34.63;15.38;;;;;;;7.77;83.31;99238.88;8737215;33;20259;-73
2020/12/12 21:17:24;;;;;;;31.02;15.32;;;;;;;7.77;83.47;99235.38;8745276;33;20606;-73
2020/12/12 21:22:27;;;;;;;30.35;14.80;;;;;;;7.79;83.37;99239.63;8721567;33;20156;-72
2020/12/12 21:27:30;;;;;;;29.38;15.80;;;;;;;7.78;83.45;99237.91;8721461;33;20165;-71
2020/12/12 21:32:33;;;;;;;34.60;15.27;;;;;;;7.75;83.76;99246.09;8724545;33;20441;-73
2020/12/12 21:37:35;;;;;;;30.83;16.17;;;;;;;7.76;83.43;99250.47;8722163;33;20183;-73
2020/12/12 21:42:39;;;;;;;33.95;15.13;;;;;;;7.78;83.52;99258.31;8723888;33;20458;-72
2020/12/12 21:47:42;;;;;;;33.15;14.98;;;;;;;7.77;83.48;99268.13;8720562;33;20158;-71
2020/12/12 21:52:44;;;;;;;32.17;16.15;;;;;;;7.73;83.43;99271.09;8722285;33;20629;-70
2020/12/12 21:58:06;;;;;;;29.95;15.90;;;;;;;7.57;83.64;99272.22;8723777;33;20226;-70
2020/12/12 22:03:13;;;;;;;31.40;15.52;;;;;;;7.56;83.76;99286.47;8716118;33;20247;-70
2020/12/12 22:08:16;;;;;;;31.23;15.50;;;;;;;7.51;83.82;99285.97;8722822;33;20564;-71
2020/12/12 22:13:21;;;;;;;31.10;13.45;;;;;;;7.47;83.81;99291.59;8742360;33;20673;-71
2020/12/12 22:18:23;;;;;;;26.48;14.05;;;;;;;7.43;83.92;99293.63;8753045;33;20249;-71
2020/12/12 22:23:31;;;;;;;30.25;13.85;;;;;;;7.46;84.13;99301.38;8751897;33;20349;-74
2020/12/12 22:28:34;;;;;;;25.73;13.82;;;;;;;7.49;84.07;99308.28;8742888;33;20206;-72
2020/12/12 22:33:37;;;;;;;31.48;15.63;;;;;;;7.52;84.19;99313.38;8697654;33;20164;-74
2020/12/12 22:38:40;;;;;;;30.83;15.13;;;;;;;7.53;84.10;99310.59;8715392;33;20668;-72
2020/12/12 22:43:43;;;;;;;33.88;15.18;;;;;;;7.59;84.23;99314.63;8694217;33;20149;-72
2020/12/12 22:48:46;;;;;;;27.02;14.00;;;;;;;7.65;84.21;99313.34;8694134;33;20438;-72
2020/12/12 22:53:48;;;;;;;28.35;14.55;;;;;;;7.69;84.10;99323.66;8693846;33;20153;-73
2020/12/12 22:58:53;;;;;;;27.52;13.73;;;;;;;7.72;83.95;99334.06;8693648;33;20167;-71
2020/12/12 23:03:55;;;;;;;25.23;12.60;;;;;;;7.73;83.98;99335.78;8693816;33;20153;-74
2020/12/12 23:08:58;;;;;;;34.58;15.02;;;;;;;7.74;84.08;99337.47;8693398;33;20141;-70
2020/12/12 23:14:01;;;;;;;31.48;15.38;;;;;;;7.74;84.05;99337.47;8669615;33;20214;-70
2020/12/12 23:19:03;;;;;;;26.13;14.60;;;;;;;7.78;84.02;99336.28;8693040;33;20145;-72
2020/12/12 23:24:05;;;;;;;28.63;14.93;;;;;;;7.83;83.89;99346.59;8693588;33;20152;-72
2020/12/12 23:29:09;;;;;;;30.17;14.18;;;;;;;7.85;83.74;99347.34;8668655;33;20420;-72
2020/12/12 23:34:11;;;;;;;28.05;14.60;;;;;;;7.85;83.74;99347.34;8693240;33;20255;-74
2020/12/12 23:39:14;;;;;;;27.13;14.25;;;;;;;7.85;83.64;99349.16;8692625;33;20464;-71
2020/12/12 23:44:17;;;;;;;29.42;13.98;;;;;;;7.79;84.02;99351.28;8693442;33;20533;-71
2020/12/12 23:49:19;;;;;;;25.73;14.13;;;;;;;7.77;84.30;99355.84;8692553;33;20160;-74
2020/12/12 23:54:22;;;;;;;29.20;14.27;;;;;;;7.75;84.45;99367.56;8692825;33;20164;-70